createdAt,value
2022-10-05T00:01:34.654Z,101142.03
2022-10-05T00:04:20.265Z,101145.77
2022-10-05T00:07:06.752Z,101140.50
2022-10-05T00:09:35.475Z,101133.90
2022-10-05T00:12:19.301Z,101137.26
2022-10-05T00:14:50.654Z,101134.82
2022-10-05T00:17:23.959Z,101132.85
2022-10-05T00:19:54.083Z,101134.09
2022-10-05T00:22:29.833Z,101118.95
2022-10-05T00:25:11.131Z,101112.63
2022-10-05T00:27:39.105Z,101100.86
2022-10-05T00:30:21.610Z,101092.80
2022-10-05T00:32:49.989Z,101090.21
2022-10-05T00:35:20.318Z,101083.26
2022-10-05T00:37:54.759Z,101082.81
2022-10-05T00:40:41.570Z,101100.29
2022-10-05T00:44:11.352Z,101104.33
2022-10-05T00:47:01.717Z,101105.46
2022-10-05T00:49:57.880Z,101104.31
2022-10-05T00:52:51.836Z,101110.50
2022-10-05T00:55:40.548Z,101100.84
2022-10-05T00:58:37.546Z,101093.43
2022-10-05T01:01:23.010Z,101086.27
2022-10-05T01:04:12.869Z,101087.46
2022-10-05T01:07:06.971Z,101090.04
2022-10-05T01:10:05.180Z,101090.02
2022-10-05T01:12:48.844Z,101087.95
2022-10-05T01:15:39.725Z,101088.67
2022-10-05T01:18:18.598Z,101081.19
2022-10-05T01:21:02.615Z,101085.17
2022-10-05T01:24:01.451Z,101092.48
2022-10-05T01:27:01.300Z,101092.11
2022-10-05T01:29:35.994Z,101086.42
2022-10-05T01:32:36.904Z,101078.73
2022-10-05T01:35:33.910Z,101078.13
2022-10-05T01:38:20.438Z,101076.23
2022-10-05T01:41:05.067Z,101072.00
2022-10-05T01:43:49.185Z,101077.70
2022-10-05T01:46:31.520Z,101085.46
2022-10-05T01:49:28.190Z,101079.13
2022-10-05T01:52:34.068Z,101073.06
2022-10-05T01:55:19.976Z,101064.39
2022-10-05T01:58:07.454Z,101058.66
2022-10-05T02:00:51.787Z,101058.25
2022-10-05T02:03:30.786Z,101056.60
2022-10-05T02:06:12.272Z,101056.67
2022-10-05T02:08:48.699Z,101051.60
2022-10-05T02:11:18.940Z,101053.02
2022-10-05T02:14:22.789Z,101050.33
2022-10-05T02:16:54.918Z,101047.48
2022-10-05T02:19:38.180Z,101044.95
2022-10-05T02:22:21.679Z,101039.55
2022-10-05T02:24:59.324Z,101039.73
2022-10-05T02:27:36.826Z,101046.09
2022-10-05T02:30:10.489Z,101046.27
2022-10-05T02:32:53.093Z,101049.05
2022-10-05T02:35:21.814Z,101062.52
2022-10-05T02:38:16.989Z,101070.41
2022-10-05T02:41:17.986Z,101062.95
2022-10-05T02:43:59.564Z,101062.52
2022-10-05T02:46:59.790Z,101058.76
2022-10-05T02:50:31.645Z,101056.60
2022-10-05T02:53:24.066Z,101053.59
2022-10-05T02:56:32.266Z,101054.50
2022-10-05T02:59:14.718Z,101048.83
2022-10-05T03:01:55.622Z,101034.50
2022-10-05T03:04:42.957Z,101032.52
2022-10-05T03:07:32.790Z,101029.73
2022-10-05T03:10:11.920Z,101029.23
2022-10-05T03:13:13.304Z,101035.85
2022-10-05T03:16:39.385Z,101034.69
2022-10-05T03:20:00.398Z,101042.84
2022-10-05T03:23:00.657Z,101047.77
2022-10-05T03:25:47.242Z,101051.58
2022-10-05T03:28:42.489Z,101049.19
2022-10-05T03:31:45.238Z,101041.27
2022-10-05T03:34:31.280Z,101034.16
2022-10-05T03:37:10.442Z,101036.91
2022-10-05T03:39:54.735Z,101034.22
2022-10-05T03:43:16.418Z,101029.14
2022-10-05T03:45:55.818Z,101034.23
2022-10-05T03:48:35.833Z,101033.33
2022-10-05T03:51:24.758Z,101034.23
2022-10-05T03:54:22.894Z,101036.25
2022-10-05T03:57:24.640Z,101032.73
2022-10-05T04:00:04.979Z,101039.98
2022-10-05T04:03:20.415Z,101036.02
2022-10-05T04:05:57.975Z,101025.73
2022-10-05T04:08:52.100Z,101027.69
2022-10-05T04:11:36.926Z,101023.91
2022-10-05T04:14:38.759Z,101027.67
2022-10-05T04:17:17.467Z,101029.23
2022-10-05T04:20:02.121Z,101030.02
2022-10-05T04:22:36.378Z,101030.00
2022-10-05T04:25:23.784Z,101031.48
2022-10-05T04:28:17.598Z,101035.70
2022-10-05T04:30:49.799Z,101034.91
2022-10-05T04:33:17.727Z,101036.19
2022-10-05T04:36:19.033Z,101032.19
2022-10-05T04:39:11.184Z,101035.80
2022-10-05T04:42:20.806Z,101039.45
2022-10-05T04:45:05.845Z,101030.41
2022-10-05T04:47:58.685Z,101033.83
2022-10-05T04:51:08.542Z,101031.89
2022-10-05T04:53:56.891Z,101034.75
2022-10-05T04:56:41.919Z,101032.70
2022-10-05T04:59:28.009Z,101036.23
2022-10-05T05:02:22.396Z,101038.24
2022-10-05T05:05:21.610Z,101034.81
2022-10-05T05:08:27.550Z,101038.16
2022-10-05T05:11:34.545Z,101030.38
2022-10-05T05:14:23.782Z,101020.01
2022-10-05T05:17:31.065Z,101017.98
2022-10-05T05:20:19.907Z,101017.56
2022-10-05T05:23:05.836Z,101015.52
2022-10-05T05:25:43.019Z,101020.70
2022-10-05T05:28:29.776Z,101020.58
2022-10-05T05:31:19.461Z,101013.27
2022-10-05T05:34:32.274Z,101017.23
2022-10-05T05:37:22.265Z,101016.04
2022-10-05T05:40:33.938Z,101016.77
2022-10-05T05:43:14.981Z,101022.03
2022-10-05T05:45:48.591Z,101026.84
2022-10-05T05:48:31.046Z,101025.03
2022-10-05T05:51:14.159Z,101028.65
2022-10-05T05:53:50.187Z,101027.33
2022-10-05T05:56:27.003Z,101025.05
2022-10-05T05:59:11.320Z,101030.27
2022-10-05T06:01:46.094Z,101026.75
2022-10-05T06:04:22.557Z,101026.71
2022-10-05T06:06:56.143Z,101023.23
2022-10-05T06:09:36.369Z,101028.84
2022-10-05T06:12:38.304Z,101028.35
2022-10-05T06:15:32.423Z,101030.35
2022-10-05T06:18:15.711Z,101030.02
2022-10-05T06:20:57.347Z,101028.76
2022-10-05T06:23:40.048Z,101027.92
2022-10-05T06:26:36.360Z,101028.69
2022-10-05T06:29:11.538Z,101025.36
2022-10-05T06:32:05.528Z,101021.27
2022-10-05T06:35:06.110Z,101021.67
2022-10-05T06:38:11.086Z,101014.11
2022-10-05T06:41:03.241Z,101015.41
2022-10-05T06:43:58.788Z,101015.16
2022-10-05T06:47:00.446Z,101009.14
2022-10-05T06:50:16.286Z,101005.52
2022-10-05T06:53:38.882Z,101000.47
2022-10-05T06:56:29.462Z,100996.11
2022-10-05T06:59:23.876Z,100995.47
2022-10-05T07:02:10.492Z,100998.34
2022-10-05T07:05:26.667Z,100998.33
2022-10-05T07:08:11.981Z,100999.92
2022-10-05T07:11:07.376Z,101002.34
2022-10-05T07:14:12.898Z,101001.23
2022-10-05T07:17:15.118Z,101000.45
2022-10-05T07:20:33.753Z,101000.54
2022-10-05T07:23:25.259Z,100999.97
2022-10-05T07:26:20.360Z,101005.08
2022-10-05T07:29:07.936Z,100998.23
2022-10-05T07:31:58.229Z,100996.27
2022-10-05T07:34:57.073Z,101003.80
2022-10-05T07:37:57.248Z,101005.74
2022-10-05T07:41:09.680Z,101004.96
2022-10-05T07:44:02.475Z,101006.86
2022-10-05T07:46:58.134Z,101006.23
2022-10-05T07:49:53.049Z,101010.51
2022-10-05T07:52:31.065Z,101008.45
2022-10-05T07:55:35.592Z,101000.80
2022-10-05T07:58:20.763Z,100993.61
2022-10-05T08:01:13.899Z,100991.10
2022-10-05T08:03:55.697Z,100998.68
2022-10-05T08:06:52.290Z,100997.77
2022-10-05T08:09:33.634Z,100994.86
2022-10-05T08:12:50.962Z,100995.60
2022-10-05T08:15:43.128Z,100996.95
2022-10-05T08:19:16.450Z,100998.65
2022-10-05T08:21:52.307Z,101001.08
2022-10-05T08:24:22.737Z,101000.77
2022-10-05T08:27:06.369Z,101001.52
2022-10-05T08:29:46.222Z,101003.29
2022-10-05T08:32:50.367Z,100999.39
2022-10-05T08:35:55.759Z,100999.84
2022-10-05T08:38:32.102Z,101004.66
2022-10-05T08:41:42.792Z,101012.71
2022-10-05T08:44:45.496Z,101023.61
2022-10-05T08:48:18.340Z,101029.86
2022-10-05T08:51:33.719Z,101024.73
2022-10-05T08:54:58.588Z,101018.97
2022-10-05T08:57:56.506Z,101014.45
2022-10-05T09:00:32.727Z,101010.27
2022-10-05T09:03:20.091Z,101003.91
2022-10-05T09:06:27.014Z,100991.02
2022-10-05T09:09:34.921Z,100977.23
2022-10-05T09:12:38.346Z,100979.42
2022-10-05T09:15:37.306Z,100978.71
2022-10-05T09:18:57.784Z,100978.38
2022-10-05T09:21:42.666Z,100983.83
2022-10-05T09:24:27.667Z,100990.55
2022-10-05T09:27:17.417Z,100983.91
2022-10-05T09:30:20.387Z,100983.58
2022-10-05T09:33:26.007Z,100976.58
2022-10-05T09:36:27.468Z,100981.38
2022-10-05T09:40:01.102Z,100981.92
2022-10-05T09:42:47.241Z,100974.11
2022-10-05T09:46:02.341Z,100967.19
2022-10-05T09:48:56.821Z,100960.06
2022-10-05T09:52:07.184Z,100955.70
2022-10-05T09:55:08.968Z,100945.85
2022-10-05T09:58:11.739Z,100940.34
2022-10-05T10:01:29.095Z,100951.20
2022-10-05T10:04:22.067Z,100954.03
2022-10-05T10:07:06.846Z,100954.48
2022-10-05T10:09:52.902Z,100952.52
2022-10-05T10:12:51.887Z,100951.69
2022-10-05T10:15:57.828Z,100947.15
2022-10-05T10:18:51.833Z,100948.88
2022-10-05T10:21:43.332Z,100943.73
2022-10-05T10:24:35.455Z,100944.08
2022-10-05T10:27:32.116Z,100942.96
2022-10-05T10:30:31.055Z,100947.42
2022-10-05T10:33:35.043Z,100943.09
2022-10-05T10:36:18.964Z,100944.11
2022-10-05T10:39:08.009Z,100942.56
2022-10-05T10:42:14.792Z,100943.79
2022-10-05T10:45:05.394Z,100940.88
2022-10-05T10:48:01.232Z,100936.61
2022-10-05T10:51:03.199Z,100931.89
2022-10-05T10:53:43.910Z,100927.00
2022-10-05T10:56:37.030Z,100920.33
2022-10-05T10:59:55.925Z,100918.78
2022-10-05T11:02:57.696Z,100911.08
2022-10-05T11:06:04.712Z,100910.66
2022-10-05T11:09:13.397Z,100908.44
2022-10-05T11:12:10.630Z,100912.35
2022-10-05T11:15:17.274Z,100910.70
2022-10-05T11:18:45.814Z,100910.08
2022-10-05T11:21:54.169Z,100911.60
2022-10-05T11:24:48.493Z,100919.61
2022-10-05T11:27:40.723Z,100927.15
2022-10-05T11:30:47.458Z,100926.08
2022-10-05T11:33:57.982Z,100927.80
2022-10-05T11:36:59.898Z,100933.52
2022-10-05T11:39:33.505Z,100933.27
2022-10-05T11:42:33.448Z,100926.51
2022-10-05T11:45:37.627Z,100918.23
2022-10-05T11:48:37.069Z,100924.55
2022-10-05T11:51:28.453Z,100923.06
2022-10-05T11:54:08.937Z,100919.09
2022-10-05T11:56:44.502Z,100915.31
2022-10-05T11:59:30.294Z,100909.73
2022-10-05T12:02:43.635Z,100901.88
2022-10-05T12:05:41.655Z,100902.41
2022-10-05T12:08:52.711Z,100899.48
2022-10-05T12:12:15.575Z,100889.92
2022-10-05T12:15:01.654Z,100881.12
2022-10-05T12:17:48.478Z,100873.92
2022-10-05T12:20:33.441Z,100864.86
2022-10-05T12:23:19.815Z,100862.10
2022-10-05T12:26:06.559Z,100858.61
2022-10-05T12:28:46.896Z,100858.16
2022-10-05T12:31:29.658Z,100850.30
2022-10-05T12:34:20.208Z,100847.13
2022-10-05T12:37:43.519Z,100851.00
2022-10-05T12:40:35.997Z,100852.41
2022-10-05T12:43:20.481Z,100849.81
2022-10-05T12:46:20.999Z,100852.13
2022-10-05T12:49:43.964Z,100847.77
2022-10-05T12:52:56.015Z,100844.48
2022-10-05T12:55:53.299Z,100842.33
2022-10-05T12:58:52.880Z,100839.48
2022-10-05T13:01:50.746Z,100837.07
2022-10-05T13:04:40.359Z,100841.52
2022-10-05T13:07:29.324Z,100839.63
2022-10-05T13:10:19.973Z,100843.00
2022-10-05T13:13:37.619Z,100837.67
2022-10-05T13:16:17.882Z,100833.13
2022-10-05T13:18:59.003Z,100828.98
2022-10-05T13:22:00.174Z,100820.73
2022-10-05T13:25:17.270Z,100815.85
2022-10-05T13:28:00.780Z,100818.58
2022-10-05T13:30:29.712Z,100818.08
2022-10-05T13:33:18.671Z,100815.64
2022-10-05T13:35:58.902Z,100810.45
2022-10-05T13:39:15.271Z,100811.44
2022-10-05T13:41:59.983Z,100812.48
2022-10-05T13:44:50.326Z,100806.34
2022-10-05T13:47:34.183Z,100805.13
2022-10-05T13:50:28.564Z,100793.29
2022-10-05T13:53:27.004Z,100795.84
2022-10-05T13:56:17.158Z,100792.58
2022-10-05T13:59:14.558Z,100788.23
2022-10-05T14:02:24.523Z,100786.00
2022-10-05T14:05:01.062Z,100783.77
2022-10-05T14:07:47.559Z,100783.94
2022-10-05T14:10:38.235Z,100776.30
2022-10-05T14:13:44.222Z,100777.98
2022-10-05T14:16:11.979Z,100776.28
2022-10-05T14:18:57.473Z,100776.54
2022-10-05T14:21:30.654Z,100775.17
2022-10-05T14:24:43.150Z,100779.16
2022-10-05T14:27:28.101Z,100778.95
2022-10-05T14:30:07.947Z,100775.17
2022-10-05T14:33:07.230Z,100771.64
2022-10-05T14:35:56.041Z,100768.57
2022-10-05T14:38:51.244Z,100763.85
2022-10-05T14:41:24.842Z,100760.55
2022-10-05T14:44:11.064Z,100761.27
2022-10-05T14:46:52.072Z,100766.23
2022-10-05T14:49:49.997Z,100765.23
2022-10-05T14:52:32.490Z,100760.84
2022-10-05T14:55:39.541Z,100758.61
2022-10-05T14:58:58.739Z,100758.15
2022-10-05T15:01:35.015Z,100752.30
2022-10-05T15:04:42.990Z,100752.31
2022-10-05T15:07:26.365Z,100750.34
2022-10-05T15:10:40.421Z,100750.91
2022-10-05T15:13:22.295Z,100745.91
2022-10-05T15:16:05.786Z,100747.41
2022-10-05T15:18:52.026Z,100743.48
2022-10-05T15:21:42.348Z,100737.91
2022-10-05T15:24:27.023Z,100738.94
2022-10-05T15:27:05.950Z,100738.20
2022-10-05T15:30:04.508Z,100732.11
2022-10-05T15:32:55.457Z,100728.60
2022-10-05T15:35:45.089Z,100723.40
2022-10-05T15:38:25.856Z,100723.89
2022-10-05T15:41:10.458Z,100721.20
2022-10-05T15:44:18.119Z,100719.21
2022-10-05T15:46:48.027Z,100723.17
2022-10-05T15:49:42.223Z,100726.59
2022-10-05T15:52:36.141Z,100722.48
2022-10-05T15:55:35.163Z,100722.82
2022-10-05T15:58:43.751Z,100727.85
2022-10-05T16:01:40.261Z,100731.89
2022-10-05T16:04:46.843Z,100727.88
2022-10-05T16:07:46.856Z,100711.57
2022-10-05T16:10:24.136Z,100728.73
2022-10-05T16:13:27.903Z,100726.02
2022-10-05T16:16:16.230Z,100726.42
2022-10-05T16:19:20.978Z,100727.69
2022-10-05T16:22:43.454Z,100725.84
2022-10-05T16:25:25.609Z,100722.79
2022-10-05T16:28:45.070Z,100721.21
2022-10-05T16:31:47.023Z,100720.48
2022-10-05T16:34:58.517Z,100716.71
2022-10-05T16:38:14.266Z,100725.69
2022-10-05T16:41:29.489Z,100721.11
2022-10-05T16:44:14.178Z,100724.01
2022-10-05T16:47:08.689Z,100722.20
2022-10-05T16:50:04.783Z,100725.29
2022-10-05T16:52:33.954Z,100726.30
2022-10-05T16:55:12.155Z,100731.27
2022-10-05T16:57:52.565Z,100733.58
2022-10-05T17:01:04.494Z,100736.58
2022-10-05T17:03:57.231Z,100736.80
2022-10-05T17:07:12.758Z,100740.77
2022-10-05T17:10:13.476Z,100742.17
2022-10-05T17:13:00.581Z,100744.98
2022-10-05T17:16:05.705Z,100740.34
2022-10-05T17:19:15.183Z,100743.84
2022-10-05T17:22:22.691Z,100743.30
2022-10-05T17:25:18.331Z,100748.15
2022-10-05T17:28:16.365Z,100748.46
2022-10-05T17:30:53.963Z,100746.23
2022-10-05T17:33:30.327Z,100748.88
2022-10-05T17:36:12.245Z,100750.00
2022-10-05T17:39:20.104Z,100747.87
2022-10-05T17:41:48.579Z,100745.49
2022-10-05T17:44:24.752Z,100741.17
2022-10-05T17:47:00.193Z,100744.44
2022-10-05T17:50:16.110Z,100743.13
2022-10-05T17:53:03.553Z,100739.89
2022-10-05T17:55:44.044Z,100739.40
2022-10-05T17:58:24.579Z,100737.74
2022-10-05T18:00:58.433Z,100732.65
2022-10-05T18:03:50.094Z,100730.89
2022-10-05T18:06:37.788Z,100732.31
2022-10-05T18:09:20.373Z,100730.53
2022-10-05T18:12:16.141Z,100727.66
2022-10-05T18:15:06.218Z,100728.69
2022-10-05T18:17:58.642Z,100728.49
2022-10-05T18:20:32.533Z,100725.84
2022-10-05T18:23:01.475Z,100723.98
2022-10-05T18:25:43.600Z,100723.05
2022-10-05T18:28:28.740Z,100720.15
2022-10-05T18:31:22.067Z,100714.63
2022-10-05T18:34:31.246Z,100707.53
2022-10-05T18:37:18.256Z,100712.55
2022-10-05T18:40:17.080Z,100713.80
2022-10-05T18:43:18.355Z,100720.69
2022-10-05T18:46:22.358Z,100718.90
2022-10-05T18:49:16.428Z,100724.55
2022-10-05T18:52:00.376Z,100726.91
2022-10-05T18:54:57.241Z,100727.27
2022-10-05T18:57:43.653Z,100725.98
2022-10-05T19:00:20.085Z,100732.69
2022-10-05T19:02:57.694Z,100738.60
2022-10-05T19:05:48.490Z,100739.17
2022-10-05T19:08:59.798Z,100736.72
2022-10-05T19:12:04.025Z,100741.66
2022-10-05T19:14:45.336Z,100740.67
2022-10-05T19:18:11.163Z,100739.48
2022-10-05T19:21:13.946Z,100740.88
2022-10-05T19:24:33.678Z,100743.36
2022-10-05T19:27:46.714Z,100742.21
2022-10-05T19:30:29.988Z,100745.40
2022-10-05T19:33:31.163Z,100745.92
2022-10-05T19:36:40.062Z,100742.91
2022-10-05T19:39:31.178Z,100746.56
2022-10-05T19:42:46.020Z,100744.32
2022-10-05T19:45:27.353Z,100740.95
2022-10-05T19:48:26.957Z,100745.46
2022-10-05T19:51:00.940Z,100748.83
2022-10-05T19:53:37.022Z,100753.48
2022-10-05T19:56:34.161Z,100759.08
2022-10-05T19:59:17.543Z,100761.86
2022-10-05T20:01:55.850Z,100764.27
2022-10-05T20:04:46.134Z,100765.80
2022-10-05T20:07:20.711Z,100770.20
2022-10-05T20:10:17.555Z,100778.70
2022-10-05T20:12:56.030Z,100780.02
2022-10-05T20:15:48.473Z,100782.77
2022-10-05T20:19:01.512Z,100788.48
2022-10-05T20:21:46.302Z,100793.62
2022-10-05T20:24:25.726Z,100794.54
2022-10-05T20:27:06.287Z,100797.52
2022-10-05T20:29:38.639Z,100794.14
2022-10-05T20:32:13.017Z,100798.63
2022-10-05T20:34:43.380Z,100804.75
2022-10-05T20:37:17.460Z,100807.23
2022-10-05T20:39:45.394Z,100803.42
2022-10-05T20:42:14.142Z,100807.48
2022-10-05T20:44:41.897Z,100806.55
2022-10-05T20:47:10.690Z,100805.86
2022-10-05T20:49:41.199Z,100804.79
2022-10-05T20:52:11.268Z,100808.18
2022-10-05T20:54:39.460Z,100805.91
2022-10-05T20:57:09.138Z,100803.94
2022-10-05T20:59:37.345Z,100805.38
2022-10-05T21:02:05.814Z,100804.62
2022-10-05T21:04:40.895Z,100804.23
2022-10-05T21:07:09.638Z,100806.17
2022-10-05T21:09:39.274Z,100807.91
2022-10-05T21:12:06.946Z,100808.29
2022-10-05T21:14:36.426Z,100805.77
2022-10-05T21:17:07.868Z,100808.28
2022-10-05T21:19:39.453Z,100810.01
2022-10-05T21:22:09.952Z,100811.56
2022-10-05T21:24:40.766Z,100813.53
2022-10-05T21:27:10.137Z,100813.48
2022-10-05T21:29:40.917Z,100815.56
2022-10-05T21:32:11.710Z,100817.23
2022-10-05T21:34:41.439Z,100821.21
2022-10-05T21:37:09.210Z,100815.64
2022-10-05T21:39:36.903Z,100818.73
2022-10-05T21:42:04.841Z,100821.05
2022-10-05T21:44:32.546Z,100821.75
2022-10-05T21:47:00.399Z,100823.47
2022-10-05T21:49:28.621Z,100825.83
2022-10-05T21:51:56.709Z,100825.26
2022-10-05T21:54:24.905Z,100825.52
2022-10-05T21:56:55.510Z,100825.83
2022-10-05T21:59:29.195Z,100823.94
2022-10-05T22:01:57.319Z,100823.91
2022-10-05T22:04:25.126Z,100823.52
2022-10-05T22:06:55.406Z,100823.52
2022-10-05T22:09:23.391Z,100827.99
2022-10-05T22:11:51.368Z,100827.95
2022-10-05T22:14:19.151Z,100825.88
2022-10-05T22:16:47.219Z,100824.91
2022-10-05T22:19:19.087Z,100825.99
2022-10-05T22:21:46.963Z,100825.52
2022-10-05T22:24:14.684Z,100828.94
2022-10-05T22:26:46.503Z,100830.02
2022-10-05T22:29:16.863Z,100828.17
2022-10-05T22:31:48.690Z,100830.02
2022-10-05T22:34:18.144Z,100830.85
2022-10-05T22:36:47.364Z,100830.66
2022-10-05T22:39:17.040Z,100834.71
2022-10-05T22:41:44.824Z,100836.88
2022-10-05T22:44:12.662Z,100836.48
2022-10-05T22:46:40.426Z,100836.48
2022-10-05T22:49:08.784Z,100837.83
2022-10-05T22:51:36.592Z,100841.79
2022-10-05T22:54:04.679Z,100840.19
2022-10-05T22:56:32.372Z,100837.96
2022-10-05T22:59:00.026Z,100837.77
2022-10-05T23:01:27.747Z,100836.58
2022-10-05T23:03:57.176Z,100837.27
2022-10-05T23:06:27.824Z,100840.13
2022-10-05T23:08:55.560Z,100840.86
2022-10-05T23:11:28.782Z,100843.87
2022-10-05T23:13:57.329Z,100845.04
2022-10-05T23:16:28.111Z,100843.88
2022-10-05T23:18:56.941Z,100846.17
2022-10-05T23:21:28.843Z,100843.38
2022-10-05T23:23:56.562Z,100844.85
2022-10-05T23:26:25.803Z,100847.14
2022-10-05T23:28:54.120Z,100843.90
2022-10-05T23:31:25.666Z,100844.61
2022-10-05T23:33:53.854Z,100842.80
2022-10-05T23:36:25.333Z,100846.35
2022-10-05T23:38:53.916Z,100849.90
2022-10-05T23:41:22.026Z,100850.00
2022-10-05T23:43:49.851Z,100853.74
2022-10-05T23:46:17.992Z,100858.23
2022-10-05T23:48:45.803Z,100858.45
2022-10-05T23:51:14.442Z,100859.88
2022-10-05T23:53:42.667Z,100867.95
2022-10-05T23:56:10.543Z,100863.86
2022-10-05T23:58:38.990Z,100866.99
